Messwerte San José Del Cabo

Temperatur

Temperatur
°C
1573920000 9.00 9.00 24
1573923600 10.00 10.00 26
1573927200 11.00 11.00 27
1573930800 12.00 12.00 29
1573934400 13.00 13.00 29
1573938000 14.00 14.00 28
1573941600 15.00 15.00 28
1573945200 16.00 16.00 27
1573948800 17.00 17.00 27
1573952400 18.00 18.00 26
1573956000 19.00 19.00 25
1573959600 20.00 20.00 25
1573963200 21.00 21.00
1573966800 22.00 22.00 22
1573970400 23.00 23.00
1573974000 0.00 0.00
1573977600 1.00 1.00
1573981200 2.00 2.00
1573984800 3.00 3.00
1573988400 4.00 4.00
1573992000 5.00 5.00
1573995600 6.00 6.00
1573999200 7.00 7.00 21
1574002800 8.00 8.00 21

Aktuellste Messwerte

Wettercharakter
Wetter: bedeckt
Temperatur
22 °C
Feuchtigkeit
90 %
Wind
0 km/h, -
Luftdruck
1012 hPa
Messzeit: 17. November 2019, 9.00Datenquelle: METAR

Weitere Messstationen in der Nähe

Messstation Temperatur Entfernung
La Paz 23 °C 129 km
Los Mochis 23 °C 289 km
Culiacán 23 °C 297 km
Mazatlán 25 °C 336 km
Loreto 20 °C 358 km

Wind

Windrichtung Böen Mittelwind
° km/h km/h
1573920000 9.00 8.00 - 9.00 0
1573923600 10.00 9.00 - 10.00 0
1573927200 11.00 10.00 - 11.00 0
1573930800 12.00 11.00 - 12.00 0
1573934400 13.00 12.00 - 13.00 180° 10
1573938000 14.00 13.00 - 14.00 140° 15
1573941600 15.00 14.00 - 15.00 120° 10
1573945200 16.00 15.00 - 16.00 160° 10
1573948800 17.00 16.00 - 17.00 130° 10
1573952400 18.00 17.00 - 18.00 170° 20
1573956000 19.00 18.00 - 19.00 0
1573959600 20.00 19.00 - 20.00 0
1573963200 21.00 20.00 - 21.00
1573966800 22.00 21.00 - 22.00 130° 5
1573970400 23.00 22.00 - 23.00
1573974000 0.00 23.00 - 0.00
1573977600 1.00 0.00 - 1.00
1573981200 2.00 1.00 - 2.00
1573984800 3.00 2.00 - 3.00
1573988400 4.00 3.00 - 4.00
1573992000 5.00 4.00 - 5.00
1573995600 6.00 5.00 - 6.00
1573999200 7.00 6.00 - 7.00 110° 15
1574002800 8.00 7.00 - 8.00 0

Ihre Wetterstation

Fehlt Ihre Wetterstation auf unserem Portal?

Schreiben Sie an network@meteonews.ch